sensor_id;sensor_type;location;lat;lon;timestamp;temperature;humidity
35027;DHT22;60696;51.426;6.934;2022-09-21T00:00:33;9.70;99.90
35027;DHT22;60696;51.426;6.934;2022-09-21T00:02:59;9.70;99.90
35027;DHT22;60696;51.426;6.934;2022-09-21T00:05:25;9.70;99.90
35027;DHT22;60696;51.426;6.934;2022-09-21T00:07:50;9.80;99.90
35027;DHT22;60696;51.426;6.934;2022-09-21T00:10:18;9.80;99.90
35027;DHT22;60696;51.426;6.934;2022-09-21T00:12:45;9.80;99.90
35027;DHT22;60696;51.426;6.934;2022-09-21T00:15:13;9.80;99.90
35027;DHT22;60696;51.426;6.934;2022-09-21T00:17:42;9.80;99.90
35027;DHT22;60696;51.426;6.934;2022-09-21T00:20:08;9.80;99.90
35027;DHT22;60696;51.426;6.934;2022-09-21T00:22:34;9.80;99.90
35027;DHT22;60696;51.426;6.934;2022-09-21T00:25:01;9.90;99.90
35027;DHT22;60696;51.426;6.934;2022-09-21T00:27:28;9.80;99.90
35027;DHT22;60696;51.426;6.934;2022-09-21T00:29:58;9.80;99.90
35027;DHT22;60696;51.426;6.934;2022-09-21T00:32:25;9.80;99.90
35027;DHT22;60696;51.426;6.934;2022-09-21T00:34:52;9.90;99.90
35027;DHT22;60696;51.426;6.934;2022-09-21T00:37:20;9.90;99.90
35027;DHT22;60696;51.426;6.934;2022-09-21T00:39:46;9.90;99.90
35027;DHT22;60696;51.426;6.934;2022-09-21T00:42:26;10.00;99.90
35027;DHT22;60696;51.426;6.934;2022-09-21T00:44:53;10.00;99.90
35027;DHT22;60696;51.426;6.934;2022-09-21T00:47:25;10.00;99.90
35027;DHT22;60696;51.426;6.934;2022-09-21T00:49:53;10.00;99.90
35027;DHT22;60696;51.426;6.934;2022-09-21T00:52:23;10.00;99.90
35027;DHT22;60696;51.426;6.934;2022-09-21T00:55:03;10.00;99.90
35027;DHT22;60696;51.426;6.934;2022-09-21T00:57:30;10.10;99.90
35027;DHT22;60696;51.426;6.934;2022-09-21T01:00:01;10.00;99.90
35027;DHT22;60696;51.426;6.934;2022-09-21T01:02:27;10.10;99.90
35027;DHT22;60696;51.426;6.934;2022-09-21T01:04:54;10.00;99.90
35027;DHT22;60696;51.426;6.934;2022-09-21T01:07:23;10.10;99.90
35027;DHT22;60696;51.426;6.934;2022-09-21T01:09:53;10.10;99.90
35027;DHT22;60696;51.426;6.934;2022-09-21T01:27:54;9.90;99.90
35027;DHT22;60696;51.426;6.934;2022-09-21T01:32:26;9.80;99.90
35027;DHT22;60696;51.426;6.934;2022-09-21T01:35:01;9.80;99.90
35027;DHT22;60696;51.426;6.934;2022-09-21T01:37:34;9.70;99.90
35027;DHT22;60696;51.426;6.934;2022-09-21T01:40:07;9.60;99.90
35027;DHT22;60696;51.426;6.934;2022-09-21T01:42:37;9.60;99.90
35027;DHT22;60696;51.426;6.934;2022-09-21T01:45:05;9.60;99.90
35027;DHT22;60696;51.426;6.934;2022-09-21T01:47:34;9.60;99.90
35027;DHT22;60696;51.426;6.934;2022-09-21T01:50:03;9.60;99.90
35027;DHT22;60696;51.426;6.934;2022-09-21T01:52:41;9.60;99.90
35027;DHT22;60696;51.426;6.934;2022-09-21T01:55:29;9.60;99.90
35027;DHT22;60696;51.426;6.934;2022-09-21T01:58:03;9.60;99.90
35027;DHT22;60696;51.426;6.934;2022-09-21T02:00:30;9.60;99.90
35027;DHT22;60696;51.426;6.934;2022-09-21T02:05:52;9.60;99.90
35027;DHT22;60696;51.426;6.934;2022-09-21T02:08:17;9.60;99.90
35027;DHT22;60696;51.426;6.934;2022-09-21T02:10:52;9.60;99.90
35027;DHT22;60696;51.426;6.934;2022-09-21T02:13:21;9.60;99.90
35027;DHT22;60696;51.426;6.934;2022-09-21T02:22:36;9.70;99.90
35027;DHT22;60696;51.426;6.934;2022-09-21T02:24:50;9.60;99.90
35027;DHT22;60696;51.426;6.934;2022-09-21T02:30:24;9.60;99.90
35027;DHT22;60696;51.426;6.934;2022-09-21T02:33:14;9.60;99.90
35027;DHT22;60696;51.426;6.934;2022-09-21T02:36:04;9.60;99.90
35027;DHT22;60696;51.426;6.934;2022-09-21T02:39:14;9.60;99.90
35027;DHT22;60696;51.426;6.934;2022-09-21T02:41:42;9.60;99.90
35027;DHT22;60696;51.426;6.934;2022-09-21T02:44:17;9.60;99.90
35027;DHT22;60696;51.426;6.934;2022-09-21T02:46:52;9.60;99.90
35027;DHT22;60696;51.426;6.934;2022-09-21T02:49:31;9.50;99.90
35027;DHT22;60696;51.426;6.934;2022-09-21T02:52:02;9.40;99.90
35027;DHT22;60696;51.426;6.934;2022-09-21T02:54:31;9.40;99.90
35027;DHT22;60696;51.426;6.934;2022-09-21T02:56:58;9.40;99.90
35027;DHT22;60696;51.426;6.934;2022-09-21T02:59:25;9.40;99.90
35027;DHT22;60696;51.426;6.934;2022-09-21T03:01:52;9.40;99.90
35027;DHT22;60696;51.426;6.934;2022-09-21T03:04:18;9.30;99.90
35027;DHT22;60696;51.426;6.934;2022-09-21T03:06:43;9.30;99.90
35027;DHT22;60696;51.426;6.934;2022-09-21T03:09:09;9.20;99.90
35027;DHT22;60696;51.426;6.934;2022-09-21T03:11:34;9.20;99.90
35027;DHT22;60696;51.426;6.934;2022-09-21T03:14:01;9.10;99.90
35027;DHT22;60696;51.426;6.934;2022-09-21T03:16:31;9.10;99.90
35027;DHT22;60696;51.426;6.934;2022-09-21T03:18:56;9.00;99.90
35027;DHT22;60696;51.426;6.934;2022-09-21T03:21:22;9.00;99.90
35027;DHT22;60696;51.426;6.934;2022-09-21T03:23:47;9.10;99.90
35027;DHT22;60696;51.426;6.934;2022-09-21T03:26:13;9.10;99.90
35027;DHT22;60696;51.426;6.934;2022-09-21T03:28:38;8.90;99.90
35027;DHT22;60696;51.426;6.934;2022-09-21T03:31:04;8.90;99.90
35027;DHT22;60696;51.426;6.934;2022-09-21T03:33:31;8.80;99.90
35027;DHT22;60696;51.426;6.934;2022-09-21T03:35:57;8.80;99.90
35027;DHT22;60696;51.426;6.934;2022-09-21T03:38:22;8.80;99.90
35027;DHT22;60696;51.426;6.934;2022-09-21T03:40:49;8.80;99.90
35027;DHT22;60696;51.426;6.934;2022-09-21T03:43:16;8.80;99.90
35027;DHT22;60696;51.426;6.934;2022-09-21T03:45:42;8.80;99.90
35027;DHT22;60696;51.426;6.934;2022-09-21T03:48:09;8.80;99.90
35027;DHT22;60696;51.426;6.934;2022-09-21T03:50:36;8.70;99.90
35027;DHT22;60696;51.426;6.934;2022-09-21T03:53:01;8.70;99.90
35027;DHT22;60696;51.426;6.934;2022-09-21T03:55:27;8.80;99.90
35027;DHT22;60696;51.426;6.934;2022-09-21T03:57:54;8.80;99.90
35027;DHT22;60696;51.426;6.934;2022-09-21T04:00:20;8.80;99.90
35027;DHT22;60696;51.426;6.934;2022-09-21T04:02:45;8.80;99.90
35027;DHT22;60696;51.426;6.934;2022-09-21T04:05:13;8.80;99.90
35027;DHT22;60696;51.426;6.934;2022-09-21T04:07:40;8.80;99.90
35027;DHT22;60696;51.426;6.934;2022-09-21T04:10:08;8.70;99.90
35027;DHT22;60696;51.426;6.934;2022-09-21T04:12:38;8.70;99.90
35027;DHT22;60696;51.426;6.934;2022-09-21T04:15:04;8.70;99.90
35027;DHT22;60696;51.426;6.934;2022-09-21T04:17:32;8.70;99.90
35027;DHT22;60696;51.426;6.934;2022-09-21T04:19:58;8.70;99.90
35027;DHT22;60696;51.426;6.934;2022-09-21T04:22:24;8.70;99.90
35027;DHT22;60696;51.426;6.934;2022-09-21T04:24:49;8.60;99.90
35027;DHT22;60696;51.426;6.934;2022-09-21T04:27:15;8.70;99.90
35027;DHT22;60696;51.426;6.934;2022-09-21T04:29:41;8.60;99.90
35027;DHT22;60696;51.426;6.934;2022-09-21T04:32:06;8.70;99.90
35027;DHT22;60696;51.426;6.934;2022-09-21T04:34:32;8.70;99.90
35027;DHT22;60696;51.426;6.934;2022-09-21T04:36:58;8.70;99.90
35027;DHT22;60696;51.426;6.934;2022-09-21T04:39:24;8.70;99.90
35027;DHT22;60696;51.426;6.934;2022-09-21T04:41:50;8.60;99.90
35027;DHT22;60696;51.426;6.934;2022-09-21T04:44:16;8.60;99.90
35027;DHT22;60696;51.426;6.934;2022-09-21T04:46:45;8.60;99.90
35027;DHT22;60696;51.426;6.934;2022-09-21T04:49:10;8.50;99.90
35027;DHT22;60696;51.426;6.934;2022-09-21T04:51:36;8.50;99.90
35027;DHT22;60696;51.426;6.934;2022-09-21T04:54:02;8.50;99.90
35027;DHT22;60696;51.426;6.934;2022-09-21T04:56:28;8.50;99.90
35027;DHT22;60696;51.426;6.934;2022-09-21T04:58:54;8.40;99.90
35027;DHT22;60696;51.426;6.934;2022-09-21T05:01:19;8.40;99.90
35027;DHT22;60696;51.426;6.934;2022-09-21T05:03:45;8.40;99.90
35027;DHT22;60696;51.426;6.934;2022-09-21T05:06:10;8.40;99.90
35027;DHT22;60696;51.426;6.934;2022-09-21T05:08:38;8.50;99.90
35027;DHT22;60696;51.426;6.934;2022-09-21T05:11:22;8.50;99.90
35027;DHT22;60696;51.426;6.934;2022-09-21T05:13:48;8.50;99.90
35027;DHT22;60696;51.426;6.934;2022-09-21T05:16:14;8.60;99.90
35027;DHT22;60696;51.426;6.934;2022-09-21T05:18:40;8.50;99.90
35027;DHT22;60696;51.426;6.934;2022-09-21T05:21:06;8.60;99.90
35027;DHT22;60696;51.426;6.934;2022-09-21T05:23:32;8.50;99.90
35027;DHT22;60696;51.426;6.934;2022-09-21T05:25:58;8.50;99.90
35027;DHT22;60696;51.426;6.934;2022-09-21T05:28:25;8.60;99.90
35027;DHT22;60696;51.426;6.934;2022-09-21T05:31:03;8.60;99.90
35027;DHT22;60696;51.426;6.934;2022-09-21T05:33:34;8.50;99.90
35027;DHT22;60696;51.426;6.934;2022-09-21T05:38:38;8.60;99.90
35027;DHT22;60696;51.426;6.934;2022-09-21T05:41:04;8.60;99.90
35027;DHT22;60696;51.426;6.934;2022-09-21T05:43:49;8.70;99.90
35027;DHT22;60696;51.426;6.934;2022-09-21T05:54:29;8.80;99.90
35027;DHT22;60696;51.426;6.934;2022-09-21T05:57:18;8.80;99.90
35027;DHT22;60696;51.426;6.934;2022-09-21T06:00:10;8.90;99.90
35027;DHT22;60696;51.426;6.934;2022-09-21T06:05:41;9.10;99.90
35027;DHT22;60696;51.426;6.934;2022-09-21T06:08:07;9.10;99.90
35027;DHT22;60696;51.426;6.934;2022-09-21T06:10:33;9.20;99.90
35027;DHT22;60696;51.426;6.934;2022-09-21T06:12:59;9.30;99.90
35027;DHT22;60696;51.426;6.934;2022-09-21T06:15:25;9.40;99.90
35027;DHT22;60696;51.426;6.934;2022-09-21T06:17:51;9.30;99.90
35027;DHT22;60696;51.426;6.934;2022-09-21T06:20:16;9.40;99.90
35027;DHT22;60696;51.426;6.934;2022-09-21T06:22:42;9.60;99.90
35027;DHT22;60696;51.426;6.934;2022-09-21T06:25:08;9.70;99.90
35027;DHT22;60696;51.426;6.934;2022-09-21T06:27:34;9.70;99.90
35027;DHT22;60696;51.426;6.934;2022-09-21T06:29:59;9.80;99.90
35027;DHT22;60696;51.426;6.934;2022-09-21T06:32:25;9.90;99.90
35027;DHT22;60696;51.426;6.934;2022-09-21T06:34:51;9.90;99.90
35027;DHT22;60696;51.426;6.934;2022-09-21T06:37:16;10.00;99.90
35027;DHT22;60696;51.426;6.934;2022-09-21T06:39:42;10.10;99.90
35027;DHT22;60696;51.426;6.934;2022-09-21T06:42:08;10.20;99.90
35027;DHT22;60696;51.426;6.934;2022-09-21T06:44:33;10.30;99.90
35027;DHT22;60696;51.426;6.934;2022-09-21T06:46:59;10.30;99.90
35027;DHT22;60696;51.426;6.934;2022-09-21T06:49:25;10.20;99.90
35027;DHT22;60696;51.426;6.934;2022-09-21T06:51:53;10.10;99.90
35027;DHT22;60696;51.426;6.934;2022-09-21T06:54:19;10.00;99.90
35027;DHT22;60696;51.426;6.934;2022-09-21T06:56:44;9.90;99.90
35027;DHT22;60696;51.426;6.934;2022-09-21T06:59:10;10.00;99.90
35027;DHT22;60696;51.426;6.934;2022-09-21T07:01:36;9.90;99.90
35027;DHT22;60696;51.426;6.934;2022-09-21T07:04:01;10.00;99.90
35027;DHT22;60696;51.426;6.934;2022-09-21T07:06:27;10.10;99.90
35027;DHT22;60696;51.426;6.934;2022-09-21T07:08:54;10.20;99.90
35027;DHT22;60696;51.426;6.934;2022-09-21T07:11:19;10.20;99.90
35027;DHT22;60696;51.426;6.934;2022-09-21T07:13:46;10.40;99.90
35027;DHT22;60696;51.426;6.934;2022-09-21T07:16:12;10.60;99.90
35027;DHT22;60696;51.426;6.934;2022-09-21T07:18:39;10.70;99.90
35027;DHT22;60696;51.426;6.934;2022-09-21T07:21:06;10.90;99.90
35027;DHT22;60696;51.426;6.934;2022-09-21T07:23:32;11.10;99.90
35027;DHT22;60696;51.426;6.934;2022-09-21T07:26:11;11.20;99.90
35027;DHT22;60696;51.426;6.934;2022-09-21T07:28:38;11.50;99.90
35027;DHT22;60696;51.426;6.934;2022-09-21T07:31:12;11.80;99.90
35027;DHT22;60696;51.426;6.934;2022-09-21T07:33:44;12.30;99.90
35027;DHT22;60696;51.426;6.934;2022-09-21T07:36:13;13.80;99.90
35027;DHT22;60696;51.426;6.934;2022-09-21T07:38:42;16.10;99.90
35027;DHT22;60696;51.426;6.934;2022-09-21T07:41:09;18.60;99.90
35027;DHT22;60696;51.426;6.934;2022-09-21T07:43:35;20.20;99.90
35027;DHT22;60696;51.426;6.934;2022-09-21T07:46:04;22.10;99.90
35027;DHT22;60696;51.426;6.934;2022-09-21T07:48:29;23.10;95.90
35027;DHT22;60696;51.426;6.934;2022-09-21T07:51:03;24.00;91.00
35027;DHT22;60696;51.426;6.934;2022-09-21T07:53:31;25.00;88.50
35027;DHT22;60696;51.426;6.934;2022-09-21T07:56:01;25.70;81.50
35027;DHT22;60696;51.426;6.934;2022-09-21T07:58:27;26.30;78.90
35027;DHT22;60696;51.426;6.934;2022-09-21T08:01:11;27.30;71.30
35027;DHT22;60696;51.426;6.934;2022-09-21T08:03:37;27.60;68.00
35027;DHT22;60696;51.426;6.934;2022-09-21T08:06:03;28.30;64.00
35027;DHT22;60696;51.426;6.934;2022-09-21T08:08:29;27.80;64.30
35027;DHT22;60696;51.426;6.934;2022-09-21T08:10:54;27.40;65.10
35027;DHT22;60696;51.426;6.934;2022-09-21T08:13:21;27.30;68.10
35027;DHT22;60696;51.426;6.934;2022-09-21T08:15:59;28.00;62.70
35027;DHT22;60696;51.426;6.934;2022-09-21T08:18:25;28.20;62.80
35027;DHT22;60696;51.426;6.934;2022-09-21T08:21:12;29.20;64.50
35027;DHT22;60696;51.426;6.934;2022-09-21T08:26:09;28.80;61.30
35027;DHT22;60696;51.426;6.934;2022-09-21T08:28:35;29.60;60.10
35027;DHT22;60696;51.426;6.934;2022-09-21T08:31:06;29.70;59.60
35027;DHT22;60696;51.426;6.934;2022-09-21T08:33:33;29.30;58.90
35027;DHT22;60696;51.426;6.934;2022-09-21T08:35:59;29.40;59.70
35027;DHT22;60696;51.426;6.934;2022-09-21T08:38:26;29.20;61.10
35027;DHT22;60696;51.426;6.934;2022-09-21T08:40:52;30.80;58.10
35027;DHT22;60696;51.426;6.934;2022-09-21T08:43:34;31.20;57.90
35027;DHT22;60696;51.426;6.934;2022-09-21T08:46:06;30.40;56.60
35027;DHT22;60696;51.426;6.934;2022-09-21T08:48:38;30.30;56.80
35027;DHT22;60696;51.426;6.934;2022-09-21T08:51:10;29.30;58.20
35027;DHT22;60696;51.426;6.934;2022-09-21T08:53:42;29.70;58.50
35027;DHT22;60696;51.426;6.934;2022-09-21T08:56:11;29.60;57.30
35027;DHT22;60696;51.426;6.934;2022-09-21T08:58:37;29.90;58.40
35027;DHT22;60696;51.426;6.934;2022-09-21T09:04:17;31.10;55.40
35027;DHT22;60696;51.426;6.934;2022-09-21T09:09:59;30.50;52.70
35027;DHT22;60696;51.426;6.934;2022-09-21T09:12:46;30.10;56.10
35027;DHT22;60696;51.426;6.934;2022-09-21T09:15:39;31.20;51.50
35027;DHT22;60696;51.426;6.934;2022-09-21T09:18:27;31.70;53.00
35027;DHT22;60696;51.426;6.934;2022-09-21T09:21:01;32.20;50.50
35027;DHT22;60696;51.426;6.934;2022-09-21T09:23:33;31.00;48.10
35027;DHT22;60696;51.426;6.934;2022-09-21T09:26:07;29.70;51.40
35027;DHT22;60696;51.426;6.934;2022-09-21T09:28:40;31.70;50.10
35027;DHT22;60696;51.426;6.934;2022-09-21T09:31:20;31.10;49.90
35027;DHT22;60696;51.426;6.934;2022-09-21T09:36:27;32.90;43.40
35027;DHT22;60696;51.426;6.934;2022-09-21T09:38:57;32.90;43.40
35027;DHT22;60696;51.426;6.934;2022-09-21T09:41:37;31.90;43.00
35027;DHT22;60696;51.426;6.934;2022-09-21T09:44:30;31.30;45.10
35027;DHT22;60696;51.426;6.934;2022-09-21T09:50:28;31.40;45.50
35027;DHT22;60696;51.426;6.934;2022-09-21T09:52:34;30.90;45.60
35027;DHT22;60696;51.426;6.934;2022-09-21T09:55:14;28.60;46.00
35027;DHT22;60696;51.426;6.934;2022-09-21T09:57:41;27.30;49.20
35027;DHT22;60696;51.426;6.934;2022-09-21T10:00:07;28.20;51.70
35027;DHT22;60696;51.426;6.934;2022-09-21T10:02:56;27.70;48.60
35027;DHT22;60696;51.426;6.934;2022-09-21T10:07:53;29.20;49.20
35027;DHT22;60696;51.426;6.934;2022-09-21T10:13:29;25.90;50.90
35027;DHT22;60696;51.426;6.934;2022-09-21T10:18:35;24.80;54.60
35027;DHT22;60696;51.426;6.934;2022-09-21T10:21:06;25.90;49.50
35027;DHT22;60696;51.426;6.934;2022-09-21T10:23:33;25.60;48.90
35027;DHT22;60696;51.426;6.934;2022-09-21T10:26:09;24.50;51.10
35027;DHT22;60696;51.426;6.934;2022-09-21T10:32:04;24.00;55.30
35027;DHT22;60696;51.426;6.934;2022-09-21T10:34:33;25.90;54.30
35027;DHT22;60696;51.426;6.934;2022-09-21T10:37:01;27.20;54.10
35027;DHT22;60696;51.426;6.934;2022-09-21T10:39:31;27.00;51.10
35027;DHT22;60696;51.426;6.934;2022-09-21T10:42:12;25.90;53.90
35027;DHT22;60696;51.426;6.934;2022-09-21T10:44:43;26.40;55.80
35027;DHT22;60696;51.426;6.934;2022-09-21T10:47:34;28.10;54.00
35027;DHT22;60696;51.426;6.934;2022-09-21T10:50:06;29.90;51.50
35027;DHT22;60696;51.426;6.934;2022-09-21T10:52:44;30.70;48.30
35027;DHT22;60696;51.426;6.934;2022-09-21T10:55:21;29.80;48.60
35027;DHT22;60696;51.426;6.934;2022-09-21T10:57:48;29.50;49.90
35027;DHT22;60696;51.426;6.934;2022-09-21T11:02:49;25.30;48.30
35027;DHT22;60696;51.426;6.934;2022-09-21T11:05:26;23.50;52.50
35027;DHT22;60696;51.426;6.934;2022-09-21T11:08:15;22.20;55.10
35027;DHT22;60696;51.426;6.934;2022-09-21T11:10:44;21.20;59.80
35027;DHT22;60696;51.426;6.934;2022-09-21T11:13:33;20.50;59.10
35027;DHT22;60696;51.426;6.934;2022-09-21T11:16:11;20.30;59.90
35027;DHT22;60696;51.426;6.934;2022-09-21T11:21:18;19.70;63.50
35027;DHT22;60696;51.426;6.934;2022-09-21T11:24:19;20.00;64.80
35027;DHT22;60696;51.426;6.934;2022-09-21T11:26:59;20.30;64.90
35027;DHT22;60696;51.426;6.934;2022-09-21T11:29:36;20.40;64.90
35027;DHT22;60696;51.426;6.934;2022-09-21T11:40:33;21.30;63.00
35027;DHT22;60696;51.426;6.934;2022-09-21T11:43:35;22.00;65.00
35027;DHT22;60696;51.426;6.934;2022-09-21T11:52:06;21.70;62.90
35027;DHT22;60696;51.426;6.934;2022-09-21T11:59:58;20.10;65.10
35027;DHT22;60696;51.426;6.934;2022-09-21T12:13:46;20.30;66.80
35027;DHT22;60696;51.426;6.934;2022-09-21T12:16:37;20.30;65.70
35027;DHT22;60696;51.426;6.934;2022-09-21T12:21:48;19.60;66.50
35027;DHT22;60696;51.426;6.934;2022-09-21T12:24:20;19.80;65.90
35027;DHT22;60696;51.426;6.934;2022-09-21T12:26:57;19.70;65.80
35027;DHT22;60696;51.426;6.934;2022-09-21T12:29:34;19.60;66.50
35027;DHT22;60696;51.426;6.934;2022-09-21T12:34:59;19.50;66.40
35027;DHT22;60696;51.426;6.934;2022-09-21T12:37:35;19.30;67.10
35027;DHT22;60696;51.426;6.934;2022-09-21T12:40:06;19.10;66.60
35027;DHT22;60696;51.426;6.934;2022-09-21T12:42:51;18.90;65.90
35027;DHT22;60696;51.426;6.934;2022-09-21T12:45:27;18.90;65.60
35027;DHT22;60696;51.426;6.934;2022-09-21T12:50:41;18.90;69.90
35027;DHT22;60696;51.426;6.934;2022-09-21T12:53:18;19.00;71.20
35027;DHT22;60696;51.426;6.934;2022-09-21T12:58:29;19.10;74.10
35027;DHT22;60696;51.426;6.934;2022-09-21T13:01:04;18.80;74.10
35027;DHT22;60696;51.426;6.934;2022-09-21T13:04:00;18.60;73.20
35027;DHT22;60696;51.426;6.934;2022-09-21T13:09:21;18.40;71.20
35027;DHT22;60696;51.426;6.934;2022-09-21T13:11:53;18.30;72.60
35027;DHT22;60696;51.426;6.934;2022-09-21T13:14:32;18.50;73.10
35027;DHT22;60696;51.426;6.934;2022-09-21T13:17:02;18.40;73.10
35027;DHT22;60696;51.426;6.934;2022-09-21T13:19:31;18.20;72.90
35027;DHT22;60696;51.426;6.934;2022-09-21T13:24:41;18.20;72.40
35027;DHT22;60696;51.426;6.934;2022-09-21T13:27:09;17.90;74.00
35027;DHT22;60696;51.426;6.934;2022-09-21T13:29:37;17.70;76.40
35027;DHT22;60696;51.426;6.934;2022-09-21T13:34:40;17.70;77.60
35027;DHT22;60696;51.426;6.934;2022-09-21T13:37:12;17.90;80.60
35027;DHT22;60696;51.426;6.934;2022-09-21T13:44:59;18.40;81.70
35027;DHT22;60696;51.426;6.934;2022-09-21T13:47:42;18.40;85.10
35027;DHT22;60696;51.426;6.934;2022-09-21T13:50:28;18.50;79.50
35027;DHT22;60696;51.426;6.934;2022-09-21T13:53:04;18.70;79.20
35027;DHT22;60696;51.426;6.934;2022-09-21T13:55:37;18.70;78.50
35027;DHT22;60696;51.426;6.934;2022-09-21T13:58:30;18.40;78.20
35027;DHT22;60696;51.426;6.934;2022-09-21T14:01:06;18.00;80.10
35027;DHT22;60696;51.426;6.934;2022-09-21T14:03:57;18.20;80.80
35027;DHT22;60696;51.426;6.934;2022-09-21T14:06:27;18.20;84.40
35027;DHT22;60696;51.426;6.934;2022-09-21T14:08:59;18.30;80.10
35027;DHT22;60696;51.426;6.934;2022-09-21T14:11:31;18.50;79.30
35027;DHT22;60696;51.426;6.934;2022-09-21T14:27:33;18.30;87.70
35027;DHT22;60696;51.426;6.934;2022-09-21T14:35:31;18.70;87.10
35027;DHT22;60696;51.426;6.934;2022-09-21T14:38:00;18.40;85.20
35027;DHT22;60696;51.426;6.934;2022-09-21T14:40:34;18.20;86.50
35027;DHT22;60696;51.426;6.934;2022-09-21T14:46:18;18.10;84.80
35027;DHT22;60696;51.426;6.934;2022-09-21T14:51:42;17.90;88.90
35027;DHT22;60696;51.426;6.934;2022-09-21T14:57:12;17.60;84.40
35027;DHT22;60696;51.426;6.934;2022-09-21T15:02:20;17.60;85.00
35027;DHT22;60696;51.426;6.934;2022-09-21T15:08:12;17.40;90.80
35027;DHT22;60696;51.426;6.934;2022-09-21T15:14:27;17.40;91.20
35027;DHT22;60696;51.426;6.934;2022-09-21T15:16:58;17.50;90.80
35027;DHT22;60696;51.426;6.934;2022-09-21T15:19:26;17.50;86.50
35027;DHT22;60696;51.426;6.934;2022-09-21T15:24:34;17.40;86.90
35027;DHT22;60696;51.426;6.934;2022-09-21T15:27:17;17.50;87.50
35027;DHT22;60696;51.426;6.934;2022-09-21T15:29:48;17.60;84.80
35027;DHT22;60696;51.426;6.934;2022-09-21T15:32:34;17.70;88.40
35027;DHT22;60696;51.426;6.934;2022-09-21T15:35:03;17.80;89.90
35027;DHT22;60696;51.426;6.934;2022-09-21T15:37:34;17.90;87.50
35027;DHT22;60696;51.426;6.934;2022-09-21T15:40:02;18.00;85.80
35027;DHT22;60696;51.426;6.934;2022-09-21T15:42:29;17.90;81.50
35027;DHT22;60696;51.426;6.934;2022-09-21T15:45:17;17.80;81.90
35027;DHT22;60696;51.426;6.934;2022-09-21T15:47:43;17.90;81.10
35027;DHT22;60696;51.426;6.934;2022-09-21T15:50:16;17.60;83.50
35027;DHT22;60696;51.426;6.934;2022-09-21T15:52:54;17.40;85.00
35027;DHT22;60696;51.426;6.934;2022-09-21T15:55:22;17.30;84.50
35027;DHT22;60696;51.426;6.934;2022-09-21T15:57:55;17.10;83.00
35027;DHT22;60696;51.426;6.934;2022-09-21T16:00:26;17.00;82.40
35027;DHT22;60696;51.426;6.934;2022-09-21T16:03:25;17.00;87.60
35027;DHT22;60696;51.426;6.934;2022-09-21T16:05:53;16.90;87.30
35027;DHT22;60696;51.426;6.934;2022-09-21T16:08:31;17.00;87.30
35027;DHT22;60696;51.426;6.934;2022-09-21T16:11:17;17.10;86.90
35027;DHT22;60696;51.426;6.934;2022-09-21T16:13:44;17.00;86.30
35027;DHT22;60696;51.426;6.934;2022-09-21T16:16:29;16.90;88.00
35027;DHT22;60696;51.426;6.934;2022-09-21T16:18:56;16.80;87.60
35027;DHT22;60696;51.426;6.934;2022-09-21T16:21:27;16.80;88.30
35027;DHT22;60696;51.426;6.934;2022-09-21T16:23:57;16.70;89.60
35027;DHT22;60696;51.426;6.934;2022-09-21T16:26:35;16.50;90.20
35027;DHT22;60696;51.426;6.934;2022-09-21T16:29:22;16.40;90.40
35027;DHT22;60696;51.426;6.934;2022-09-21T16:31:50;16.40;91.30
35027;DHT22;60696;51.426;6.934;2022-09-21T16:34:19;16.20;91.80
35027;DHT22;60696;51.426;6.934;2022-09-21T16:36:51;16.20;92.50
35027;DHT22;60696;51.426;6.934;2022-09-21T16:39:18;16.20;93.00
35027;DHT22;60696;51.426;6.934;2022-09-21T16:41:47;16.20;93.80
35027;DHT22;60696;51.426;6.934;2022-09-21T16:44:23;16.20;93.80
35027;DHT22;60696;51.426;6.934;2022-09-21T16:46:54;16.10;94.60
35027;DHT22;60696;51.426;6.934;2022-09-21T16:49:21;16.10;95.60
35027;DHT22;60696;51.426;6.934;2022-09-21T16:51:48;16.00;95.80
35027;DHT22;60696;51.426;6.934;2022-09-21T16:54:15;16.00;97.20
35027;DHT22;60696;51.426;6.934;2022-09-21T16:56:41;15.90;97.00
35027;DHT22;60696;51.426;6.934;2022-09-21T16:59:16;15.80;97.60
35027;DHT22;60696;51.426;6.934;2022-09-21T17:01:46;15.70;99.40
35027;DHT22;60696;51.426;6.934;2022-09-21T17:04:20;15.50;99.90
35027;DHT22;60696;51.426;6.934;2022-09-21T17:06:50;15.30;99.90
35027;DHT22;60696;51.426;6.934;2022-09-21T17:09:22;15.10;99.90
35027;DHT22;60696;51.426;6.934;2022-09-21T17:11:49;15.00;99.90
35027;DHT22;60696;51.426;6.934;2022-09-21T17:14:17;14.90;99.90
35027;DHT22;60696;51.426;6.934;2022-09-21T17:16:56;14.90;99.90
35027;DHT22;60696;51.426;6.934;2022-09-21T17:19:23;14.70;99.90
35027;DHT22;60696;51.426;6.934;2022-09-21T17:21:49;14.60;99.90
35027;DHT22;60696;51.426;6.934;2022-09-21T17:24:15;14.60;99.90
35027;DHT22;60696;51.426;6.934;2022-09-21T17:26:42;14.40;99.90
35027;DHT22;60696;51.426;6.934;2022-09-21T17:29:22;14.30;99.90
35027;DHT22;60696;51.426;6.934;2022-09-21T17:31:53;14.20;99.90
35027;DHT22;60696;51.426;6.934;2022-09-21T17:34:20;14.10;99.90
35027;DHT22;60696;51.426;6.934;2022-09-21T17:36:47;14.10;99.90
35027;DHT22;60696;51.426;6.934;2022-09-21T17:39:13;14.00;99.90
35027;DHT22;60696;51.426;6.934;2022-09-21T17:41:58;13.90;99.90
35027;DHT22;60696;51.426;6.934;2022-09-21T17:47:19;13.80;99.90
35027;DHT22;60696;51.426;6.934;2022-09-21T17:49:46;13.70;99.90
35027;DHT22;60696;51.426;6.934;2022-09-21T17:52:22;13.60;99.90
35027;DHT22;60696;51.426;6.934;2022-09-21T17:55:11;13.50;99.90
35027;DHT22;60696;51.426;6.934;2022-09-21T18:00:47;13.20;99.90
35027;DHT22;60696;51.426;6.934;2022-09-21T18:03:24;13.10;99.90
35027;DHT22;60696;51.426;6.934;2022-09-21T18:05:52;13.00;99.90
35027;DHT22;60696;51.426;6.934;2022-09-21T18:08:29;12.90;99.90
35027;DHT22;60696;51.426;6.934;2022-09-21T18:11:30;12.90;99.90
35027;DHT22;60696;51.426;6.934;2022-09-21T18:24:45;12.60;99.90
35027;DHT22;60696;51.426;6.934;2022-09-21T18:27:11;12.50;99.90
35027;DHT22;60696;51.426;6.934;2022-09-21T18:29:37;12.50;99.90
35027;DHT22;60696;51.426;6.934;2022-09-21T18:40:31;12.20;99.90
35027;DHT22;60696;51.426;6.934;2022-09-21T18:42:58;12.10;99.90
35027;DHT22;60696;51.426;6.934;2022-09-21T18:45:32;12.00;99.90
35027;DHT22;60696;51.426;6.934;2022-09-21T18:48:15;11.90;99.90
35027;DHT22;60696;51.426;6.934;2022-09-21T18:53:40;11.90;99.90
35027;DHT22;60696;51.426;6.934;2022-09-21T18:56:10;11.90;99.90
35027;DHT22;60696;51.426;6.934;2022-09-21T18:58:37;11.90;99.90
35027;DHT22;60696;51.426;6.934;2022-09-21T19:01:03;11.90;99.90
35027;DHT22;60696;51.426;6.934;2022-09-21T19:03:29;11.70;99.90
35027;DHT22;60696;51.426;6.934;2022-09-21T19:14:25;11.30;99.90
35027;DHT22;60696;51.426;6.934;2022-09-21T19:20:07;11.30;99.90
35027;DHT22;60696;51.426;6.934;2022-09-21T19:25:38;11.30;99.90
35027;DHT22;60696;51.426;6.934;2022-09-21T19:31:17;11.20;99.90
35027;DHT22;60696;51.426;6.934;2022-09-21T19:33:44;11.30;99.90
35027;DHT22;60696;51.426;6.934;2022-09-21T19:36:10;11.30;99.90